Time;durP1;ratioP1;P1;durP2;ratioP2;P2;SDS_P1;SDS_P2;PMS_P1;PMS_P2;Temp;Humidity;BMP_temperature;BMP_pressure;BME280_temperature;BME280_humidity;BME280_pressure;Samples;Min_cycle;Max_cycle;Signal;HPM_P1;HPM_P2
2024/01/24 00:00:50;;;;;;;6.77;1.60;;;;;;;8.84;100.00;101064.97;4973314;28;20199;-70
2024/01/24 00:03:17;;;;;;;8.57;1.90;;;;;;;8.84;100.00;101063.22;4970038;28;20234;-70
2024/01/24 00:05:44;;;;;;;4.03;1.40;;;;;;;8.91;100.00;101069.59;4973454;28;20206;-69
2024/01/24 00:08:11;;;;;;;4.43;1.50;;;;;;;8.92;100.00;101069.63;4971909;28;20239;-70
2024/01/24 00:10:37;;;;;;;5.97;1.30;;;;;;;8.97;100.00;101061.84;4970535;28;20201;-70
2024/01/24 00:13:03;;;;;;;1.77;1.20;;;;;;;9.03;100.00;101062.03;4975009;28;20234;-70
2024/01/24 00:15:30;;;;;;;3.30;1.20;;;;;;;9.01;100.00;101069.91;4973348;28;20209;-70
2024/01/24 00:17:56;;;;;;;4.47;1.13;;;;;;;9.00;100.00;101069.84;4971472;28;20323;-70
2024/01/24 00:20:23;;;;;;;7.70;1.30;;;;;;;9.00;100.00;101075.16;4972572;28;20218;-70
2024/01/24 00:22:49;;;;;;;4.83;1.23;;;;;;;9.02;100.00;101074.34;4973026;28;20741;-69
2024/01/24 00:25:16;;;;;;;2.50;1.00;;;;;;;9.02;100.00;101065.53;4966921;28;20201;-70
2024/01/24 00:27:42;;;;;;;5.37;1.10;;;;;;;9.08;100.00;101052.50;4973208;28;20654;-70
2024/01/24 00:30:09;;;;;;;4.80;1.10;;;;;;;9.11;100.00;101056.13;4972713;28;20237;-69
2024/01/24 00:32:36;;;;;;;2.67;1.20;;;;;;;9.12;100.00;101049.09;4968580;28;20290;-70
2024/01/24 00:35:03;;;;;;;5.40;1.23;;;;;;;9.14;100.00;101046.47;4971267;28;20198;-69
2024/01/24 00:37:30;;;;;;;2.83;1.30;;;;;;;9.15;100.00;101043.88;4972654;28;20222;-70
2024/01/24 00:39:56;;;;;;;4.17;1.03;;;;;;;9.21;100.00;101032.63;4972565;28;20605;-72
2024/01/24 00:42:23;;;;;;;2.23;1.00;;;;;;;9.18;100.00;101036.03;4960911;28;20226;-69
2024/01/24 00:44:51;;;;;;;3.90;1.07;;;;;;;9.16;100.00;101034.22;4964735;28;20216;-68
2024/01/24 00:47:19;;;;;;;2.83;1.33;;;;;;;9.13;100.00;101037.66;4971557;28;20692;-70
2024/01/24 00:49:45;;;;;;;2.23;1.07;;;;;;;9.14;100.00;101052.66;4973028;28;20697;-69
2024/01/24 00:52:12;;;;;;;2.13;1.10;;;;;;;9.13;100.00;101039.41;4960527;28;20315;-70
2024/01/24 00:54:39;;;;;;;2.13;1.03;;;;;;;9.17;100.00;101034.25;4967171;28;20208;-71
2024/01/24 00:57:05;;;;;;;2.20;0.90;;;;;;;9.26;100.00;101023.97;4972986;28;20595;-71
2024/01/24 00:59:31;;;;;;;3.70;1.13;;;;;;;9.28;100.00;101024.03;4972433;28;20268;-70
2024/01/24 01:01:58;;;;;;;1.60;1.17;;;;;;;9.30;100.00;101019.66;4962940;28;20611;-68
2024/01/24 01:04:25;;;;;;;1.97;1.37;;;;;;;9.32;100.00;101013.56;4969212;28;20643;-70
2024/01/24 01:06:51;;;;;;;1.47;0.90;;;;;;;9.28;100.00;101002.88;4971310;28;20268;-70
2024/01/24 01:09:17;;;;;;;4.13;1.10;;;;;;;9.27;100.00;100990.50;4971837;28;20211;-70
2024/01/24 01:11:44;;;;;;;2.33;0.80;;;;;;;9.29;100.00;100988.81;4968743;28;20315;-70
2024/01/24 01:14:10;;;;;;;2.47;1.07;;;;;;;9.29;100.00;100997.63;4970013;28;20205;-70
2024/01/24 01:16:37;;;;;;;6.97;1.00;;;;;;;9.28;100.00;100976.44;4971659;28;20326;-70
2024/01/24 01:19:03;;;;;;;2.67;0.97;;;;;;;9.28;100.00;100976.44;4973781;28;20206;-69
2024/01/24 01:21:30;;;;;;;1.60;0.93;;;;;;;9.29;100.00;100965.03;4970800;28;20233;-70
2024/01/24 01:23:56;;;;;;;1.27;0.93;;;;;;;9.31;100.00;100964.22;4969818;28;20212;-71
2024/01/24 01:26:22;;;;;;;1.37;0.80;;;;;;;9.32;100.00;100963.34;4969570;28;20307;-71
2024/01/24 01:28:49;;;;;;;1.73;0.80;;;;;;;9.32;100.00;100963.34;4971250;28;20202;-71
2024/01/24 01:31:15;;;;;;;2.03;1.00;;;;;;;9.32;100.00;100958.06;4969689;28;20205;-69
2024/01/24 01:33:42;;;;;;;2.80;0.97;;;;;;;9.30;100.00;100945.66;4968616;28;20202;-69
2024/01/24 01:36:08;;;;;;;2.73;0.87;;;;;;;9.29;100.00;100941.22;4969528;28;20216;-71
2024/01/24 01:38:48;;;;;;;1.90;0.70;;;;;;;9.35;100.00;100944.03;4969933;28;20208;-69
2024/01/24 01:41:15;;;;;;;1.20;0.80;;;;;;;9.38;100.00;100954.69;4971264;28;20256;-68
2024/01/24 01:43:43;;;;;;;1.20;0.83;;;;;;;9.39;100.00;100944.16;4968145;28;20584;-70
2024/01/24 01:46:14;;;;;;;1.00;0.70;;;;;;;9.46;100.00;100931.09;4971504;28;20205;-70
2024/01/24 01:48:40;;;;;;;1.40;0.77;;;;;;;9.45;100.00;100932.84;4966577;28;20201;-69
2024/01/24 01:51:07;;;;;;;1.13;0.60;;;;;;;9.50;100.00;100928.56;4968628;28;20245;-70
2024/01/24 01:53:38;;;;;;;2.90;0.70;;;;;;;9.56;100.00;100933.13;4970052;28;20668;-69
2024/01/24 01:56:08;;;;;;;1.63;0.60;;;;;;;9.59;100.00;100928.81;4971272;28;20208;-69
2024/01/24 01:58:37;;;;;;;0.93;0.57;;;;;;;9.62;100.00;100931.56;4966729;28;20224;-70
2024/01/24 02:01:07;;;;;;;0.70;0.60;;;;;;;9.66;100.00;100935.19;4964993;28;20581;-68
2024/01/24 02:03:36;;;;;;;0.60;0.50;;;;;;;9.66;100.00;100921.97;4966764;28;21044;-71
2024/01/24 02:06:03;;;;;;;0.50;0.50;;;;;;;9.72;100.00;100916.81;4971471;28;20201;-71
2024/01/24 02:08:34;;;;;;;0.83;0.60;;;;;;;9.71;100.00;100912.38;4960402;28;20205;-71
2024/01/24 02:11:01;;;;;;;0.90;0.70;;;;;;;9.73;100.00;100903.63;4966008;28;20582;-71
2024/01/24 02:13:30;;;;;;;2.53;0.60;;;;;;;9.77;100.00;100901.06;4963032;28;20308;-70
2024/01/24 02:15:56;;;;;;;1.30;0.60;;;;;;;9.82;100.00;100899.41;4969769;28;20212;-70
2024/01/24 02:18:22;;;;;;;0.70;0.60;;;;;;;9.90;100.00;100913.72;4968358;28;20223;-71
2024/01/24 02:20:50;;;;;;;0.57;0.50;;;;;;;9.90;100.00;100905.78;4965799;28;20689;-71
2024/01/24 02:23:18;;;;;;;0.70;0.57;;;;;;;9.91;100.00;100892.59;4969441;28;20315;-69
2024/01/24 02:25:44;;;;;;;0.60;0.53;;;;;;;9.91;100.00;100886.41;4970764;28;20272;-71
2024/01/24 02:28:11;;;;;;;0.60;0.50;;;;;;;9.96;100.00;100898.88;4968095;28;20201;-70
2024/01/24 02:30:37;;;;;;;0.53;0.40;;;;;;;9.95;100.00;100902.38;4961548;28;20207;-70
2024/01/24 02:33:04;;;;;;;1.13;0.70;;;;;;;10.00;100.00;100899.84;4969143;28;20856;-70
2024/01/24 02:35:30;;;;;;;1.47;0.40;;;;;;;10.03;100.00;100900.84;4970281;28;20205;-71
2024/01/24 02:37:57;;;;;;;2.83;0.60;;;;;;;10.03;100.00;100900.84;4971038;28;20349;-71
2024/01/24 02:40:23;;;;;;;0.50;0.50;;;;;;;10.00;100.00;100895.44;4962477;28;20563;-70
2024/01/24 02:42:49;;;;;;;0.50;0.50;;;;;;;10.01;100.00;100891.97;4961728;28;20229;-69
2024/01/24 02:45:16;;;;;;;0.60;0.60;;;;;;;10.03;100.00;100906.13;4967908;28;20643;-70
2024/01/24 02:47:42;;;;;;;0.60;0.60;;;;;;;10.00;100.00;100897.19;4965415;28;20533;-70
2024/01/24 02:50:10;;;;;;;1.07;0.70;;;;;;;10.00;100.00;100911.31;4968559;28;20369;-71
2024/01/24 02:52:40;;;;;;;0.60;0.50;;;;;;;10.02;100.00;100914.03;4967724;28;20235;-70
2024/01/24 02:55:07;;;;;;;0.57;0.47;;;;;;;10.03;100.00;100902.59;4968756;28;20208;-70
2024/01/24 02:57:33;;;;;;;0.40;0.40;;;;;;;10.03;100.00;100910.53;4969725;28;20218;-69
2024/01/24 03:00:00;;;;;;;0.60;0.50;;;;;;;10.02;100.00;100909.63;4969060;28;20208;-68
2024/01/24 03:02:27;;;;;;;1.07;0.60;;;;;;;10.02;100.00;100914.94;4967474;28;20225;-68
2024/01/24 03:04:53;;;;;;;1.10;1.00;;;;;;;10.03;100.00;100911.44;4966229;28;20201;-70
2024/01/24 03:07:19;;;;;;;0.57;0.43;;;;;;;10.01;100.00;100897.25;4959226;28;20206;-70
2024/01/24 03:09:46;;;;;;;0.50;0.50;;;;;;;9.99;100.00;100917.47;4967527;28;20608;-70
2024/01/24 03:12:12;;;;;;;0.50;0.50;;;;;;;10.00;100.00;100932.50;4971058;28;20225;-70
2024/01/24 03:14:39;;;;;;;0.40;0.40;;;;;;;10.05;100.00;100936.19;4962975;28;20733;-70
2024/01/24 03:17:05;;;;;;;0.67;0.43;;;;;;;10.02;100.00;100929.91;4969275;28;20293;-71
2024/01/24 03:19:32;;;;;;;0.47;0.47;;;;;;;10.04;100.00;100926.44;4964521;28;20206;-70
2024/01/24 03:21:58;;;;;;;0.60;0.50;;;;;;;10.01;100.00;100931.66;4962261;28;20306;-71
2024/01/24 03:24:25;;;;;;;0.47;0.47;;;;;;;10.03;100.00;100905.25;4968547;28;20201;-70
2024/01/24 03:26:51;;;;;;;1.00;0.50;;;;;;;10.05;100.00;100893.84;4968961;28;20244;-70
2024/01/24 03:29:19;;;;;;;0.63;0.50;;;;;;;10.05;100.00;100893.84;4963839;28;20312;-70
2024/01/24 03:31:46;;;;;;;0.73;0.50;;;;;;;10.02;100.00;100901.69;4968433;28;20706;-71
2024/01/24 03:34:12;;;;;;;1.23;0.50;;;;;;;10.03;100.00;100876.13;4965974;28;20209;-71
2024/01/24 03:36:39;;;;;;;1.17;0.47;;;;;;;10.01;100.00;100878.75;4973713;28;20736;-71
2024/01/24 03:39:09;;;;;;;0.93;0.50;;;;;;;9.99;100.00;100872.50;4973398;28;20592;-71
2024/01/24 03:41:37;;;;;;;0.60;0.50;;;;;;;9.96;100.00;100876.81;4968256;28;20227;-71
2024/01/24 03:44:04;;;;;;;1.07;0.50;;;;;;;9.99;100.00;100874.25;4967923;28;20201;-71
2024/01/24 03:46:30;;;;;;;0.50;0.50;;;;;;;9.97;100.00;100853.03;4972752;28;20207;-70
2024/01/24 03:48:57;;;;;;;0.80;0.60;;;;;;;10.02;100.00;100871.69;4968138;28;20200;-70
2024/01/24 03:51:24;;;;;;;0.60;0.60;;;;;;;10.06;100.00;100870.91;4968920;28;20234;-71
2024/01/24 03:53:50;;;;;;;0.73;0.57;;;;;;;10.04;100.00;100864.69;4972119;28;20270;-71
2024/01/24 03:56:17;;;;;;;0.60;0.60;;;;;;;10.04;100.00;100859.41;4973762;28;20208;-71
2024/01/24 03:58:43;;;;;;;0.87;0.60;;;;;;;10.08;100.00;100865.66;4972804;28;20708;-68
2024/01/24 04:01:10;;;;;;;0.60;0.50;;;;;;;10.05;100.00;100856.78;4969897;28;20218;-70
2024/01/24 04:03:37;;;;;;;0.70;0.50;;;;;;;10.03;100.00;100849.69;4972842;28;20202;-71
2024/01/24 04:06:03;;;;;;;0.60;0.57;;;;;;;10.15;100.00;100838.47;4972607;28;20210;-70
2024/01/24 04:08:30;;;;;;;0.43;0.43;;;;;;;10.09;100.00;100838.31;4966701;28;20301;-71
2024/01/24 04:10:56;;;;;;;0.73;0.60;;;;;;;10.11;100.00;100833.97;4970636;28;20209;-71
2024/01/24 04:13:24;;;;;;;0.40;0.40;;;;;;;10.10;100.00;100840.13;4962831;28;20248;-72
2024/01/24 04:15:50;;;;;;;0.63;0.60;;;;;;;10.16;100.00;100825.25;4973285;28;20206;-71
2024/01/24 04:18:17;;;;;;;0.60;0.50;;;;;;;10.17;100.00;100820.84;4967402;28;20221;-71
2024/01/24 04:20:43;;;;;;;1.43;0.90;;;;;;;10.11;100.00;100821.63;4972484;28;20219;-71
2024/01/24 04:23:09;;;;;;;0.57;0.50;;;;;;;10.14;100.00;100816.41;4969633;28;20268;-72
2024/01/24 04:25:36;;;;;;;1.07;0.50;;;;;;;10.22;100.00;100829.81;4972522;28;20244;-71
2024/01/24 04:28:03;;;;;;;0.50;0.50;;;;;;;10.20;100.00;100828.88;4972519;28;20257;-71
2024/01/24 04:30:29;;;;;;;0.30;0.30;;;;;;;10.33;100.00;100828.28;4972506;28;20240;-71
2024/01/24 04:32:56;;;;;;;1.07;0.40;;;;;;;10.33;100.00;100838.88;4965724;28;24196;-70
2024/01/24 04:35:22;;;;;;;0.43;0.43;;;;;;;10.32;100.00;100843.28;4970615;28;20293;-71
2024/01/24 04:37:49;;;;;;;0.30;0.30;;;;;;;10.37;100.00;100838.09;4971259;28;20220;-70
2024/01/24 04:40:15;;;;;;;0.27;0.27;;;;;;;10.41;100.00;100837.31;4968677;28;20209;-71
2024/01/24 04:42:42;;;;;;;0.30;0.30;;;;;;;10.45;100.00;100843.56;4971563;28;20317;-71
2024/01/24 04:45:10;;;;;;;0.40;0.40;;;;;;;10.52;100.00;100834.88;4968688;28;20295;-70
2024/01/24 04:47:38;;;;;;;0.37;0.37;;;;;;;10.43;100.00;100838.25;4971595;28;20270;-71
2024/01/24 04:50:05;;;;;;;0.30;0.30;;;;;;;10.43;100.00;100835.59;4969777;28;20675;-71
2024/01/24 04:52:32;;;;;;;0.83;0.37;;;;;;;10.45;100.00;100830.34;4971691;28;20363;-71
2024/01/24 04:54:58;;;;;;;0.40;0.40;;;;;;;10.42;100.00;100820.56;4972086;28;20547;-70
2024/01/24 04:57:24;;;;;;;0.60;0.40;;;;;;;10.41;100.00;100821.44;4969406;28;20217;-70
2024/01/24 04:59:51;;;;;;;0.73;0.50;;;;;;;10.42;100.00;100814.38;4969319;28;20556;-70
2024/01/24 05:02:22;;;;;;;0.40;0.40;;;;;;;10.39;100.00;100807.22;4968629;28;20291;-70
2024/01/24 05:04:49;;;;;;;0.40;0.40;;;;;;;10.39;100.00;100840.75;4970914;28;20210;-69
2024/01/24 05:07:16;;;;;;;0.40;0.40;;;;;;;10.37;100.00;100824.84;4972430;28;20232;-70
2024/01/24 05:09:42;;;;;;;0.40;0.40;;;;;;;10.45;100.00;100810.03;4967209;28;20659;-69
2024/01/24 05:12:09;;;;;;;0.40;0.20;;;;;;;10.44;100.00;100795.00;4973145;28;20227;-70
2024/01/24 05:14:36;;;;;;;2.80;0.50;;;;;;;10.53;100.00;100797.84;4971455;28;20268;-70
2024/01/24 05:17:02;;;;;;;0.37;0.30;;;;;;;10.56;100.00;100781.13;4970305;28;20569;-70
2024/01/24 05:19:29;;;;;;;1.13;0.50;;;;;;;10.61;100.00;100779.44;4971055;28;20226;-70
2024/01/24 05:21:56;;;;;;;3.23;0.70;;;;;;;10.66;100.00;100799.84;4966751;28;20226;-70
2024/01/24 05:24:22;;;;;;;0.97;0.70;;;;;;;10.69;100.00;100793.72;4968602;28;20258;-70
2024/01/24 05:26:49;;;;;;;1.00;0.60;;;;;;;10.80;100.00;100809.81;4971531;28;20205;-70
2024/01/24 05:29:15;;;;;;;0.97;0.50;;;;;;;10.78;100.00;100803.59;4969828;28;20203;-71
2024/01/24 05:31:41;;;;;;;0.53;0.40;;;;;;;10.84;100.00;100803.75;4964451;28;20231;-71
2024/01/24 05:34:08;;;;;;;1.80;0.60;;;;;;;10.84;100.00;100787.84;4968254;28;20239;-71
2024/01/24 05:36:35;;;;;;;0.87;0.50;;;;;;;10.89;100.00;100783.53;4970240;28;20206;-72
2024/01/24 05:39:06;;;;;;;1.43;0.50;;;;;;;10.94;100.00;100763.28;4970922;28;20231;-71
2024/01/24 05:41:33;;;;;;;1.70;0.67;;;;;;;10.96;100.00;100767.75;4963104;28;20239;-72
2024/01/24 05:44:00;;;;;;;1.13;0.40;;;;;;;11.03;100.00;100773.16;4966572;28;20306;-70
2024/01/24 05:46:26;;;;;;;0.87;0.23;;;;;;;11.11;100.00;100761.81;4968518;28;20212;-70
2024/01/24 05:48:53;;;;;;;0.87;0.40;;;;;;;11.12;100.00;100758.31;4970840;28;20211;-70
2024/01/24 05:51:19;;;;;;;0.90;0.40;;;;;;;11.12;100.00;100742.41;4965817;28;20260;-71
2024/01/24 05:53:46;;;;;;;1.40;0.50;;;;;;;11.18;100.00;100729.25;4969345;28;20211;-70
2024/01/24 05:56:12;;;;;;;0.30;0.30;;;;;;;11.21;100.00;100726.66;4969742;28;20754;-71
2024/01/24 05:58:38;;;;;;;0.40;0.40;;;;;;;11.25;100.00;100748.81;4969778;28;20626;-70
2024/01/24 06:01:07;;;;;;;0.70;0.30;;;;;;;11.28;100.00;100757.72;4964366;28;20286;-71
2024/01/24 06:03:34;;;;;;;1.13;0.47;;;;;;;11.33;100.00;100760.44;4970116;28;20571;-70
2024/01/24 06:06:01;;;;;;;0.40;0.30;;;;;;;11.32;100.00;100733.88;4969710;28;20204;-70
2024/01/24 06:08:29;;;;;;;0.87;0.40;;;;;;;11.54;100.00;100751.91;4968755;28;20204;-70
2024/01/24 06:10:55;;;;;;;0.33;0.30;;;;;;;11.57;100.00;100728.06;4969672;28;20667;-70
2024/01/24 06:13:22;;;;;;;0.67;0.30;;;;;;;11.55;100.00;100733.34;4969517;28;20238;-70
2024/01/24 06:15:50;;;;;;;1.50;0.40;;;;;;;11.56;100.00;100735.13;4963592;28;20235;-70
2024/01/24 06:18:17;;;;;;;0.90;0.30;;;;;;;11.67;100.00;100735.31;4970782;28;20224;-70
2024/01/24 06:20:47;;;;;;;0.57;0.30;;;;;;;11.68;100.00;100744.16;4969334;28;20212;-71
2024/01/24 06:23:13;;;;;;;1.00;0.40;;;;;;;11.74;100.00;100731.88;4944194;28;20359;-71
2024/01/24 06:25:40;;;;;;;0.20;0.20;;;;;;;11.80;100.00;100744.38;4966013;28;20205;-74
2024/01/24 06:28:07;;;;;;;0.20;0.20;;;;;;;11.88;100.00;100743.59;4968088;28;20205;-70
2024/01/24 06:30:33;;;;;;;2.50;0.30;;;;;;;11.88;100.00;100743.59;4963383;28;20670;-69
2024/01/24 06:33:00;;;;;;;0.20;0.20;;;;;;;11.88;100.00;100737.41;4967067;28;20666;-71
2024/01/24 06:35:26;;;;;;;0.33;0.30;;;;;;;11.82;100.00;100751.47;4966300;28;20246;-69
2024/01/24 06:37:55;;;;;;;0.20;0.20;;;;;;;11.73;100.00;100753.97;4969761;28;20216;-69
2024/01/24 06:40:21;;;;;;;0.20;0.20;;;;;;;11.69;100.00;100754.81;4969416;28;20219;-70
2024/01/24 06:42:48;;;;;;;0.50;0.30;;;;;;;11.66;100.00;100740.59;4962438;28;20780;-70
2024/01/24 06:45:15;;;;;;;1.83;0.50;;;;;;;11.67;100.00;100745.94;4968274;28;20681;-69
2024/01/24 06:47:41;;;;;;;0.30;0.30;;;;;;;11.67;100.00;100747.69;4968192;28;20323;-70
2024/01/24 06:50:12;;;;;;;0.30;0.30;;;;;;;11.64;100.00;100763.56;4966507;28;20589;-70
2024/01/24 06:52:40;;;;;;;0.50;0.40;;;;;;;11.62;100.00;100774.16;4965708;28;20232;-70
2024/01/24 06:55:08;;;;;;;0.37;0.30;;;;;;;11.63;100.00;100781.25;4964040;28;20304;-69
2024/01/24 06:57:34;;;;;;;1.07;0.60;;;;;;;11.60;100.00;100782.06;4967121;28;20233;-74
2024/01/24 07:00:04;;;;;;;0.47;0.30;;;;;;;11.55;100.00;100786.41;4968469;28;20270;-69
2024/01/24 07:02:31;;;;;;;0.30;0.30;;;;;;;11.54;100.00;100797.00;4964806;28;20576;-70
2024/01/24 07:04:57;;;;;;;0.60;0.40;;;;;;;11.44;100.00;100798.63;4955078;28;20300;-69
2024/01/24 07:07:25;;;;;;;0.30;0.30;;;;;;;11.36;100.00;100810.84;4963736;28;20681;-74
2024/01/24 07:09:51;;;;;;;0.40;0.30;;;;;;;11.32;100.00;100793.13;4956063;28;20670;-69
2024/01/24 07:12:20;;;;;;;1.03;0.30;;;;;;;11.29;100.00;100793.06;4955874;28;20229;-69
2024/01/24 07:14:48;;;;;;;0.80;0.47;;;;;;;11.28;100.00;100818.69;4964678;28;20208;-72
2024/01/24 07:17:18;;;;;;;0.40;0.40;;;;;;;11.36;100.00;100815.28;4966153;28;20340;-70
2024/01/24 07:19:45;;;;;;;0.63;0.40;;;;;;;11.22;100.00;100821.25;4965132;28;20369;-70
2024/01/24 07:22:11;;;;;;;0.30;0.30;;;;;;;11.31;100.00;100831.09;4967925;28;20227;-72
2024/01/24 07:24:38;;;;;;;2.10;0.50;;;;;;;11.20;100.00;100822.94;4960994;28;20200;-70
2024/01/24 07:27:04;;;;;;;0.70;0.50;;;;;;;11.26;100.00;100838.09;4960011;28;20709;-71
2024/01/24 07:29:31;;;;;;;0.40;0.40;;;;;;;11.48;100.00;100816.34;4964245;28;20681;-68
2024/01/24 07:31:57;;;;;;;0.30;0.30;;;;;;;11.69;100.00;100821.13;4965744;28;20219;-71
2024/01/24 07:34:24;;;;;;;0.60;0.40;;;;;;;11.82;100.00;100836.41;4963007;28;20203;-70
2024/01/24 07:36:51;;;;;;;0.50;0.30;;;;;;;11.91;100.00;100833.00;4963270;28;20204;-67
2024/01/24 07:39:17;;;;;;;0.40;0.40;;;;;;;11.81;100.00;100815.16;4968210;28;20603;-70
2024/01/24 07:41:44;;;;;;;0.30;0.30;;;;;;;11.89;100.00;100822.34;4966743;28;20251;-68
2024/01/24 07:44:10;;;;;;;0.30;0.30;;;;;;;12.04;100.00;100818.16;4960686;28;20203;-68
2024/01/24 07:46:43;;;;;;;0.50;0.37;;;;;;;11.97;100.00;100829.53;4965500;28;20217;-69
2024/01/24 07:49:10;;;;;;;0.60;0.40;;;;;;;12.07;100.00;100837.66;4963155;28;20243;-70
2024/01/24 07:51:37;;;;;;;0.27;0.27;;;;;;;12.08;100.00;100842.13;4965081;28;20236;-66
2024/01/24 07:54:04;;;;;;;0.83;0.40;;;;;;;12.10;100.00;100858.97;4967222;28;20211;-69
2024/01/24 07:56:31;;;;;;;0.30;0.30;;;;;;;12.14;100.00;100863.44;4964496;28;20219;-70
2024/01/24 07:58:57;;;;;;;0.20;0.20;;;;;;;12.09;100.00;100846.56;4959027;28;20227;-69
2024/01/24 08:01:24;;;;;;;0.30;0.30;;;;;;;12.12;100.00;100849.25;4966688;28;20244;-71
2024/01/24 08:03:51;;;;;;;1.40;0.40;;;;;;;12.11;100.00;100870.47;4968275;28;20216;-69
2024/01/24 08:06:18;;;;;;;0.60;0.50;;;;;;;12.10;100.00;100848.34;4964600;28;20199;-70
2024/01/24 08:08:45;;;;;;;0.50;0.30;;;;;;;12.08;100.00;100838.56;4965825;28;20583;-71
2024/01/24 08:11:12;;;;;;;1.93;0.40;;;;;;;12.16;100.00;100844.88;4962236;28;20220;-71
2024/01/24 08:13:38;;;;;;;0.27;0.27;;;;;;;12.08;100.00;100850.06;4962786;28;20212;-70
2024/01/24 08:16:07;;;;;;;0.30;0.30;;;;;;;12.00;100.00;100864.97;4966352;28;20650;-70
2024/01/24 08:18:34;;;;;;;0.30;0.30;;;;;;;12.00;100.00;100880.00;4967489;28;20225;-72
2024/01/24 08:21:00;;;;;;;1.70;0.60;;;;;;;12.03;100.00;100878.31;4969018;28;20205;-72
2024/01/24 08:23:29;;;;;;;0.30;0.30;;;;;;;12.05;100.00;100881.88;4971427;28;20276;-69
2024/01/24 08:26:12;;;;;;;0.50;0.30;;;;;;;12.04;100.00;100895.13;4963314;28;20240;-70
2024/01/24 08:28:39;;;;;;;0.47;0.47;;;;;;;12.12;100.00;100901.47;4967675;28;20228;-75
2024/01/24 08:31:06;;;;;;;0.33;0.30;;;;;;;12.21;100.00;100896.28;4957610;28;20208;-67
2024/01/24 08:33:32;;;;;;;2.07;0.50;;;;;;;12.42;100.00;100899.25;4970663;28;20292;-71
2024/01/24 08:35:59;;;;;;;1.57;0.40;;;;;;;12.65;100.00;100894.22;4970782;28;20218;-70
2024/01/24 08:38:25;;;;;;;1.80;0.43;;;;;;;12.94;100.00;100889.28;4967736;28;20217;-71
2024/01/24 08:40:52;;;;;;;2.47;0.40;;;;;;;13.10;100.00;100898.31;4971134;28;20221;-70
2024/01/24 08:43:18;;;;;;;3.60;0.53;;;;;;;13.20;100.00;100907.31;4970586;28;20325;-71
2024/01/24 08:45:44;;;;;;;2.00;0.40;;;;;;;13.30;100.00;100930.50;4970666;28;20573;-76
2024/01/24 08:48:17;;;;;;;2.37;0.47;;;;;;;13.45;100.00;100912.94;4968900;28;20692;-75
2024/01/24 08:50:44;;;;;;;1.60;0.50;;;;;;;13.46;100.00;100914.72;4965498;28;20205;-76
2024/01/24 08:53:10;;;;;;;1.23;0.50;;;;;;;13.54;100.00;100940.50;4968096;28;20225;-75
2024/01/24 08:55:37;;;;;;;4.23;0.40;;;;;;;13.48;100.00;100917.38;4970636;28;20212;-79
2024/01/24 08:58:03;;;;;;;0.77;0.50;;;;;;;13.38;100.00;100935.03;4968870;28;20224;-75
2024/01/24 09:00:30;;;;;;;2.63;0.37;;;;;;;13.34;100.00;100945.63;4972212;28;20221;-75
2024/01/24 09:02:57;;;;;;;4.13;0.73;;;;;;;13.36;100.00;100942.09;4969652;28;20232;-78
2024/01/24 09:05:23;;;;;;;2.23;0.47;;;;;;;13.33;100.00;100951.81;4966871;28;20305;-75
2024/01/24 09:07:50;;;;;;;1.97;0.60;;;;;;;13.25;100.00;100950.84;4968355;28;20202;-78
2024/01/24 09:10:16;;;;;;;3.80;1.00;;;;;;;13.14;100.00;100943.59;4965202;28;20229;-78
2024/01/24 09:12:43;;;;;;;3.07;0.60;;;;;;;13.10;100.00;100967.47;4966303;28;20230;-77
2024/01/24 09:15:09;;;;;;;3.17;0.70;;;;;;;13.19;100.00;100986.22;4974299;28;20200;-80
2024/01/24 09:17:36;;;;;;;5.30;0.77;;;;;;;13.07;100.00;100980.72;4965932;28;20586;-77
2024/01/24 09:20:04;;;;;;;1.43;0.70;;;;;;;12.92;100.00;100989.41;4969256;28;20253;-74
2024/01/24 09:22:30;;;;;;;4.40;0.73;;;;;;;12.85;100.00;100985.78;4969027;28;20218;-72
2024/01/24 09:24:57;;;;;;;3.47;0.90;;;;;;;12.84;100.00;100972.47;4971538;28;20208;-74
2024/01/24 09:27:24;;;;;;;3.07;0.73;;;;;;;12.86;100.00;101005.28;4970970;28;20263;-72
2024/01/24 09:29:50;;;;;;;5.37;0.93;;;;;;;12.88;100.00;101002.63;4968699;28;20208;-70
2024/01/24 09:32:17;;;;;;;1.63;0.80;;;;;;;12.88;100.00;101035.44;4969703;28;20221;-73
2024/01/24 09:34:43;;;;;;;1.40;0.70;;;;;;;12.90;100.00;101022.16;4964552;28;20269;-71
2024/01/24 09:37:11;;;;;;;5.47;0.90;;;;;;;12.99;100.00;101024.94;4967111;28;20222;-75
2024/01/24 09:39:37;;;;;;;2.70;0.67;;;;;;;12.99;100.00;101028.50;4969958;28;20712;-79
2024/01/24 09:42:14;;;;;;;5.43;1.40;;;;;;;13.15;100.00;101040.22;4966809;28;20229;-73
2024/01/24 09:44:46;;;;;;;5.77;1.20;;;;;;;13.24;100.00;101039.50;4966701;28;20202;-75
2024/01/24 09:47:13;;;;;;;6.83;1.10;;;;;;;13.35;100.00;101043.19;4970303;28;20240;-77
2024/01/24 09:49:40;;;;;;;6.87;1.10;;;;;;;13.46;100.00;101030.91;4968155;28;20644;-77
2024/01/24 09:52:08;;;;;;;5.13;1.00;;;;;;;13.55;100.00;101046.97;4962600;28;20737;-78
2024/01/24 09:54:38;;;;;;;6.40;1.40;;;;;;;13.54;100.00;101039.84;4965252;28;20217;-80
2024/01/24 09:57:06;;;;;;;8.53;1.40;;;;;;;13.54;100.00;101047.84;4967742;28;20202;-79
2024/01/24 09:59:33;;;;;;;6.10;1.20;;;;;;;13.54;100.00;101063.81;4967628;28;20217;-78
2024/01/24 10:01:59;;;;;;;3.20;1.13;;;;;;;13.48;100.00;101066.41;4968838;28;21433;-79
2024/01/24 10:04:26;;;;;;;3.83;0.90;;;;;;;13.54;100.00;101065.56;4967554;28;20284;-78
2024/01/24 10:06:53;;;;;;;6.97;1.60;;;;;;;13.43;100.00;101065.44;4965932;28;20228;-81
2024/01/24 10:09:20;;;;;;;6.33;1.30;;;;;;;13.42;100.00;101053.91;4965448;28;20275;-82
2024/01/24 10:11:47;;;;;;;11.77;1.80;;;;;;;13.46;100.00;101041.53;4965804;28;20222;-80
2024/01/24 10:14:14;;;;;;;8.87;1.70;;;;;;;13.48;100.00;101069.06;4968532;28;20646;-77
2024/01/24 10:16:41;;;;;;;5.00;1.20;;;;;;;13.52;100.00;101065.56;4967101;28;20210;-80
2024/01/24 10:19:08;;;;;;;5.77;1.30;;;;;;;13.55;100.00;101088.66;4964319;28;20316;-79
2024/01/24 10:21:35;;;;;;;3.27;0.83;;;;;;;13.57;100.00;101081.56;4965643;28;20245;-80
2024/01/24 10:24:02;;;;;;;8.53;1.53;;;;;;;13.60;100.00;101093.16;4967206;28;20205;-79
2024/01/24 10:26:29;;;;;;;11.53;1.73;;;;;;;13.44;100.00;101080.53;4961616;28;20237;-79
2024/01/24 10:28:56;;;;;;;5.53;1.20;;;;;;;13.46;100.00;101068.16;4965858;28;20202;-79
2024/01/24 10:31:23;;;;;;;11.17;1.70;;;;;;;13.50;96.58;101083.28;4961330;28;20790;-79
2024/01/24 10:33:57;;;;;;;8.23;1.90;;;;;;;13.41;93.58;101085.81;4948653;28;21485;-80
2024/01/24 10:36:27;;;;;;;11.10;1.87;;;;;;;13.46;93.92;101110.72;4962221;28;20205;-82
2024/01/24 10:39:01;;;;;;;7.67;1.60;;;;;;;13.42;92.44;101114.22;4963549;28;20213;-82
2024/01/24 10:41:30;;;;;;;6.73;1.80;;;;;;;13.53;90.33;101111.69;4963944;28;20585;-79
2024/01/24 10:44:01;;;;;;;8.17;1.60;;;;;;;13.60;86.87;101121.53;4964525;28;20225;-79
2024/01/24 10:46:29;;;;;;;10.27;2.33;;;;;;;13.50;85.62;101117.88;4965906;28;20206;-79
2024/01/24 10:48:56;;;;;;;10.57;2.10;;;;;;;13.52;84.44;101102.81;4968707;28;20268;-81
2024/01/24 10:51:26;;;;;;;8.40;1.60;;;;;;;13.54;85.13;101119.69;4966932;28;20700;-79
2024/01/24 10:53:53;;;;;;;7.57;1.77;;;;;;;13.61;85.87;101102.03;4965630;28;20296;-79
2024/01/24 10:56:23;;;;;;;12.37;1.87;;;;;;;13.63;85.18;101122.50;4967070;28;20305;-79
2024/01/24 10:58:50;;;;;;;9.33;1.63;;;;;;;13.64;84.84;101132.28;4959181;28;20201;-79
2024/01/24 11:01:16;;;;;;;6.77;1.80;;;;;;;13.56;84.51;101131.25;4963303;28;20221;-78
2024/01/24 11:03:47;;;;;;;10.57;1.90;;;;;;;13.54;83.94;101122.34;4966239;28;20206;-79
2024/01/24 11:06:16;;;;;;;8.07;2.13;;;;;;;13.38;81.21;101158.50;4964342;28;20205;-76
2024/01/24 11:08:55;;;;;;;12.40;1.90;;;;;;;13.29;82.79;101126.47;4966530;28;20204;-77
2024/01/24 11:11:23;;;;;;;9.43;1.60;;;;;;;13.18;81.39;101136.94;4966208;28;20212;-78
2024/01/24 11:13:50;;;;;;;7.67;1.70;;;;;;;13.16;81.64;101153.69;4964954;28;20737;-79
2024/01/24 11:16:30;;;;;;;12.10;2.30;;;;;;;13.25;83.40;101155.66;4966234;28;20303;-77
2024/01/24 11:19:01;;;;;;;7.83;1.53;;;;;;;13.25;83.64;101140.59;4968421;28;20690;-77